sensor_id;sensor_type;location;lat;lon;timestamp;P1;durP1;ratioP1;P2;durP2;ratioP2
22571;SDS011;11452;53.368;14.658;2023-03-11T00:00:06;37.90;;;21.67;;
22571;SDS011;11452;53.368;14.658;2023-03-11T00:05:23;32.47;;;20.10;;
22571;SDS011;11452;53.368;14.658;2023-03-11T00:10:30;37.17;;;21.20;;
22571;SDS011;11452;53.368;14.658;2023-03-11T00:15:37;35.40;;;22.63;;
22571;SDS011;11452;53.368;14.658;2023-03-11T00:20:44;37.00;;;22.60;;
22571;SDS011;11452;53.368;14.658;2023-03-11T00:25:50;37.30;;;22.17;;
22571;SDS011;11452;53.368;14.658;2023-03-11T00:30:56;40.20;;;23.83;;
22571;SDS011;11452;53.368;14.658;2023-03-11T00:36:03;35.50;;;22.93;;
22571;SDS011;11452;53.368;14.658;2023-03-11T00:41:09;31.17;;;20.93;;
22571;SDS011;11452;53.368;14.658;2023-03-11T00:46:15;33.37;;;20.90;;
22571;SDS011;11452;53.368;14.658;2023-03-11T00:51:21;30.47;;;20.30;;
22571;SDS011;11452;53.368;14.658;2023-03-11T00:56:27;28.60;;;18.30;;
22571;SDS011;11452;53.368;14.658;2023-03-11T01:01:32;27.90;;;18.27;;
22571;SDS011;11452;53.368;14.658;2023-03-11T01:06:38;24.07;;;16.60;;
22571;SDS011;11452;53.368;14.658;2023-03-11T01:11:45;24.13;;;15.87;;
22571;SDS011;11452;53.368;14.658;2023-03-11T01:16:51;22.60;;;15.63;;
22571;SDS011;11452;53.368;14.658;2023-03-11T01:21:57;24.47;;;16.43;;
22571;SDS011;11452;53.368;14.658;2023-03-11T01:27:03;22.27;;;13.63;;
22571;SDS011;11452;53.368;14.658;2023-03-11T01:32:10;22.30;;;14.27;;
22571;SDS011;11452;53.368;14.658;2023-03-11T01:37:16;17.60;;;12.97;;
22571;SDS011;11452;53.368;14.658;2023-03-11T01:42:23;21.67;;;14.17;;
22571;SDS011;11452;53.368;14.658;2023-03-11T01:52:41;19.03;;;12.73;;
22571;SDS011;11452;53.368;14.658;2023-03-11T01:57:49;19.23;;;12.93;;
22571;SDS011;11452;53.368;14.658;2023-03-11T02:02:57;20.10;;;13.43;;
22571;SDS011;11452;53.368;14.658;2023-03-11T02:08:06;18.80;;;12.80;;
22571;SDS011;11452;53.368;14.658;2023-03-11T02:13:12;15.73;;;11.70;;
22571;SDS011;11452;53.368;14.658;2023-03-11T02:18:19;17.53;;;11.20;;
22571;SDS011;11452;53.368;14.658;2023-03-11T02:23:29;12.43;;;10.00;;
22571;SDS011;11452;53.368;14.658;2023-03-11T02:28:35;12.90;;;10.73;;
22571;SDS011;11452;53.368;14.658;2023-03-11T02:33:44;15.23;;;10.73;;
22571;SDS011;11452;53.368;14.658;2023-03-11T02:38:52;11.80;;;7.97;;
22571;SDS011;11452;53.368;14.658;2023-03-11T02:43:58;13.00;;;9.97;;
22571;SDS011;11452;53.368;14.658;2023-03-11T02:49:05;12.33;;;9.27;;
22571;SDS011;11452;53.368;14.658;2023-03-11T02:54:12;9.40;;;7.37;;
22571;SDS011;11452;53.368;14.658;2023-03-11T02:59:18;8.57;;;5.60;;
22571;SDS011;11452;53.368;14.658;2023-03-11T03:04:24;6.60;;;5.20;;
22571;SDS011;11452;53.368;14.658;2023-03-11T03:09:31;6.07;;;5.43;;
22571;SDS011;11452;53.368;14.658;2023-03-11T03:14:38;5.23;;;4.73;;
22571;SDS011;11452;53.368;14.658;2023-03-11T03:19:44;5.93;;;4.53;;
22571;SDS011;11452;53.368;14.658;2023-03-11T03:24:50;5.53;;;4.73;;
22571;SDS011;11452;53.368;14.658;2023-03-11T03:29:56;4.37;;;3.90;;
22571;SDS011;11452;53.368;14.658;2023-03-11T03:35:02;4.27;;;3.87;;
22571;SDS011;11452;53.368;14.658;2023-03-11T03:40:25;6.07;;;4.23;;
22571;SDS011;11452;53.368;14.658;2023-03-11T03:45:33;5.60;;;3.47;;
22571;SDS011;11452;53.368;14.658;2023-03-11T03:50:39;5.20;;;4.00;;
22571;SDS011;11452;53.368;14.658;2023-03-11T03:55:46;3.10;;;2.70;;
22571;SDS011;11452;53.368;14.658;2023-03-11T04:00:55;7.13;;;4.33;;
22571;SDS011;11452;53.368;14.658;2023-03-11T04:06:08;6.00;;;4.73;;
22571;SDS011;11452;53.368;14.658;2023-03-11T04:11:16;7.23;;;4.80;;
22571;SDS011;11452;53.368;14.658;2023-03-11T04:16:22;6.97;;;4.97;;
22571;SDS011;11452;53.368;14.658;2023-03-11T04:21:30;5.97;;;4.53;;
22571;SDS011;11452;53.368;14.658;2023-03-11T04:26:37;5.97;;;4.20;;
22571;SDS011;11452;53.368;14.658;2023-03-11T04:31:45;4.50;;;3.13;;
22571;SDS011;11452;53.368;14.658;2023-03-11T04:36:52;5.77;;;4.30;;
22571;SDS011;11452;53.368;14.658;2023-03-11T04:41:59;5.67;;;4.50;;
22571;SDS011;11452;53.368;14.658;2023-03-11T04:47:07;5.93;;;4.37;;
22571;SDS011;11452;53.368;14.658;2023-03-11T04:52:13;7.33;;;4.33;;
22571;SDS011;11452;53.368;14.658;2023-03-11T04:57:19;10.37;;;4.87;;
22571;SDS011;11452;53.368;14.658;2023-03-11T05:02:25;7.93;;;5.43;;
22571;SDS011;11452;53.368;14.658;2023-03-11T05:07:32;20.53;;;12.47;;
22571;SDS011;11452;53.368;14.658;2023-03-11T05:12:39;11.03;;;8.07;;
22571;SDS011;11452;53.368;14.658;2023-03-11T05:17:45;30.07;;;15.13;;
22571;SDS011;11452;53.368;14.658;2023-03-11T05:22:51;30.47;;;16.77;;
22571;SDS011;11452;53.368;14.658;2023-03-11T05:27:57;24.23;;;13.10;;
22571;SDS011;11452;53.368;14.658;2023-03-11T05:33:02;25.77;;;14.47;;
22571;SDS011;11452;53.368;14.658;2023-03-11T05:38:08;34.47;;;18.63;;
22571;SDS011;11452;53.368;14.658;2023-03-11T05:43:14;19.37;;;10.97;;
22571;SDS011;11452;53.368;14.658;2023-03-11T05:48:21;9.40;;;6.23;;
22571;SDS011;11452;53.368;14.658;2023-03-11T05:53:27;9.90;;;6.00;;
22571;SDS011;11452;53.368;14.658;2023-03-11T05:58:33;7.53;;;6.13;;
22571;SDS011;11452;53.368;14.658;2023-03-11T06:03:39;10.83;;;5.53;;
22571;SDS011;11452;53.368;14.658;2023-03-11T06:08:46;5.70;;;4.30;;
22571;SDS011;11452;53.368;14.658;2023-03-11T06:13:55;6.97;;;5.07;;
22571;SDS011;11452;53.368;14.658;2023-03-11T06:19:02;7.33;;;5.47;;
22571;SDS011;11452;53.368;14.658;2023-03-11T06:24:09;9.57;;;6.37;;
22571;SDS011;11452;53.368;14.658;2023-03-11T06:29:15;6.87;;;5.67;;
22571;SDS011;11452;53.368;14.658;2023-03-11T06:34:23;8.30;;;5.07;;
22571;SDS011;11452;53.368;14.658;2023-03-11T06:39:28;2.70;;;2.13;;
22571;SDS011;11452;53.368;14.658;2023-03-11T06:44:35;6.23;;;3.60;;
22571;SDS011;11452;53.368;14.658;2023-03-11T06:49:40;5.50;;;3.90;;
22571;SDS011;11452;53.368;14.658;2023-03-11T06:54:46;5.93;;;4.00;;
22571;SDS011;11452;53.368;14.658;2023-03-11T06:59:52;5.37;;;4.30;;
22571;SDS011;11452;53.368;14.658;2023-03-11T07:04:58;7.00;;;4.37;;
22571;SDS011;11452;53.368;14.658;2023-03-11T07:10:05;6.17;;;4.10;;
22571;SDS011;11452;53.368;14.658;2023-03-11T07:15:11;6.23;;;4.70;;
22571;SDS011;11452;53.368;14.658;2023-03-11T07:20:18;8.23;;;4.23;;
22571;SDS011;11452;53.368;14.658;2023-03-11T07:25:23;5.33;;;4.60;;
22571;SDS011;11452;53.368;14.658;2023-03-11T07:30:29;7.67;;;4.03;;
22571;SDS011;11452;53.368;14.658;2023-03-11T07:35:36;4.97;;;4.47;;
22571;SDS011;11452;53.368;14.658;2023-03-11T07:40:42;6.57;;;5.27;;
22571;SDS011;11452;53.368;14.658;2023-03-11T07:45:48;5.80;;;4.70;;
22571;SDS011;11452;53.368;14.658;2023-03-11T07:51:09;4.33;;;3.83;;
22571;SDS011;11452;53.368;14.658;2023-03-11T07:56:12;5.10;;;3.80;;
22571;SDS011;11452;53.368;14.658;2023-03-11T08:01:24;3.57;;;3.23;;
22571;SDS011;11452;53.368;14.658;2023-03-11T08:06:28;4.83;;;4.27;;
22571;SDS011;11452;53.368;14.658;2023-03-11T08:11:35;7.60;;;3.67;;
22571;SDS011;11452;53.368;14.658;2023-03-11T08:16:41;7.10;;;4.60;;
22571;SDS011;11452;53.368;14.658;2023-03-11T08:21:47;5.13;;;4.17;;
22571;SDS011;11452;53.368;14.658;2023-03-11T08:26:52;5.20;;;4.00;;
22571;SDS011;11452;53.368;14.658;2023-03-11T08:31:59;4.00;;;3.60;;
22571;SDS011;11452;53.368;14.658;2023-03-11T08:37:06;6.37;;;3.87;;
22571;SDS011;11452;53.368;14.658;2023-03-11T08:42:12;5.80;;;3.10;;
22571;SDS011;11452;53.368;14.658;2023-03-11T08:47:19;3.77;;;3.37;;
22571;SDS011;11452;53.368;14.658;2023-03-11T08:52:24;5.07;;;2.83;;
22571;SDS011;11452;53.368;14.658;2023-03-11T08:57:30;4.63;;;3.83;;
22571;SDS011;11452;53.368;14.658;2023-03-11T09:02:36;4.13;;;3.53;;
22571;SDS011;11452;53.368;14.658;2023-03-11T09:07:44;5.00;;;3.30;;
22571;SDS011;11452;53.368;14.658;2023-03-11T09:12:50;5.13;;;3.70;;
22571;SDS011;11452;53.368;14.658;2023-03-11T09:17:56;3.37;;;3.07;;
22571;SDS011;11452;53.368;14.658;2023-03-11T09:23:02;3.90;;;3.43;;
22571;SDS011;11452;53.368;14.658;2023-03-11T09:28:07;3.77;;;3.00;;
22571;SDS011;11452;53.368;14.658;2023-03-11T09:33:13;4.43;;;3.50;;
22571;SDS011;11452;53.368;14.658;2023-03-11T09:38:19;7.47;;;3.67;;
22571;SDS011;11452;53.368;14.658;2023-03-11T09:43:27;3.57;;;3.03;;
22571;SDS011;11452;53.368;14.658;2023-03-11T09:48:36;3.60;;;3.30;;
22571;SDS011;11452;53.368;14.658;2023-03-11T09:53:45;4.23;;;3.03;;
22571;SDS011;11452;53.368;14.658;2023-03-11T09:59:13;2.80;;;2.37;;
22571;SDS011;11452;53.368;14.658;2023-03-11T10:04:27;5.07;;;3.30;;
22571;SDS011;11452;53.368;14.658;2023-03-11T10:09:35;6.00;;;3.07;;
22571;SDS011;11452;53.368;14.658;2023-03-11T10:14:54;5.13;;;3.37;;
22571;SDS011;11452;53.368;14.658;2023-03-11T10:20:22;4.70;;;2.90;;
22571;SDS011;11452;53.368;14.658;2023-03-11T10:36:28;2.90;;;2.30;;
22571;SDS011;11452;53.368;14.658;2023-03-11T10:46:48;4.90;;;2.67;;
22571;SDS011;11452;53.368;14.658;2023-03-11T10:51:54;4.17;;;2.40;;
22571;SDS011;11452;53.368;14.658;2023-03-11T10:57:01;5.70;;;3.00;;
22571;SDS011;11452;53.368;14.658;2023-03-11T11:07:32;4.20;;;3.00;;
22571;SDS011;11452;53.368;14.658;2023-03-11T11:13:01;3.10;;;2.80;;
22571;SDS011;11452;53.368;14.658;2023-03-11T11:17:59;3.17;;;2.20;;
22571;SDS011;11452;53.368;14.658;2023-03-11T11:23:11;3.03;;;1.90;;
22571;SDS011;11452;53.368;14.658;2023-03-11T11:28:16;4.17;;;3.23;;
22571;SDS011;11452;53.368;14.658;2023-03-11T11:33:34;3.87;;;3.50;;
22571;SDS011;11452;53.368;14.658;2023-03-11T11:38:35;3.63;;;2.93;;
22571;SDS011;11452;53.368;14.658;2023-03-11T11:43:48;4.27;;;3.00;;
22571;SDS011;11452;53.368;14.658;2023-03-11T12:00:00;3.50;;;3.20;;
22571;SDS011;11452;53.368;14.658;2023-03-11T12:10:23;3.73;;;3.27;;
22571;SDS011;11452;53.368;14.658;2023-03-11T12:15:38;5.03;;;2.90;;
22571;SDS011;11452;53.368;14.658;2023-03-11T12:20:54;4.47;;;3.30;;
22571;SDS011;11452;53.368;14.658;2023-03-11T12:26:07;2.63;;;2.33;;
22571;SDS011;11452;53.368;14.658;2023-03-11T12:31:28;3.70;;;3.00;;
22571;SDS011;11452;53.368;14.658;2023-03-11T12:36:36;2.63;;;2.43;;
22571;SDS011;11452;53.368;14.658;2023-03-11T12:41:45;2.60;;;2.40;;
22571;SDS011;11452;53.368;14.658;2023-03-11T13:07:47;2.93;;;2.63;;
22571;SDS011;11452;53.368;14.658;2023-03-11T13:12:54;3.03;;;2.43;;
22571;SDS011;11452;53.368;14.658;2023-03-11T13:18:01;3.47;;;2.73;;
22571;SDS011;11452;53.368;14.658;2023-03-11T13:33:53;3.60;;;2.43;;
22571;SDS011;11452;53.368;14.658;2023-03-11T13:44:29;3.33;;;2.70;;
22571;SDS011;11452;53.368;14.658;2023-03-11T13:55:18;3.80;;;2.90;;
22571;SDS011;11452;53.368;14.658;2023-03-11T14:00:46;3.13;;;2.77;;
22571;SDS011;11452;53.368;14.658;2023-03-11T14:06:00;3.67;;;3.10;;
22571;SDS011;11452;53.368;14.658;2023-03-11T14:16:21;5.50;;;3.77;;
22571;SDS011;11452;53.368;14.658;2023-03-11T14:21:29;4.50;;;4.10;;
22571;SDS011;11452;53.368;14.658;2023-03-11T14:26:34;4.80;;;3.77;;
22571;SDS011;11452;53.368;14.658;2023-03-11T14:31:40;4.60;;;4.10;;
22571;SDS011;11452;53.368;14.658;2023-03-11T14:36:48;4.27;;;3.70;;
22571;SDS011;11452;53.368;14.658;2023-03-11T14:47:19;5.37;;;3.90;;
22571;SDS011;11452;53.368;14.658;2023-03-11T14:52:49;4.50;;;4.10;;
22571;SDS011;11452;53.368;14.658;2023-03-11T14:57:56;5.83;;;3.63;;
22571;SDS011;11452;53.368;14.658;2023-03-11T15:03:11;4.70;;;3.60;;
22571;SDS011;11452;53.368;14.658;2023-03-11T15:08:23;4.53;;;3.23;;
22571;SDS011;11452;53.368;14.658;2023-03-11T15:13:30;5.20;;;4.07;;
22571;SDS011;11452;53.368;14.658;2023-03-11T15:18:37;4.20;;;3.80;;
22571;SDS011;11452;53.368;14.658;2023-03-11T15:23:44;5.30;;;4.00;;
22571;SDS011;11452;53.368;14.658;2023-03-11T15:29:02;4.47;;;3.57;;
22571;SDS011;11452;53.368;14.658;2023-03-11T15:34:22;3.33;;;2.90;;
22571;SDS011;11452;53.368;14.658;2023-03-11T15:50:12;3.20;;;2.90;;
22571;SDS011;11452;53.368;14.658;2023-03-11T15:55:22;3.10;;;2.80;;
22571;SDS011;11452;53.368;14.658;2023-03-11T16:00:29;3.30;;;2.67;;
22571;SDS011;11452;53.368;14.658;2023-03-11T16:05:35;3.53;;;3.20;;
22571;SDS011;11452;53.368;14.658;2023-03-11T16:10:41;2.67;;;2.47;;
22571;SDS011;11452;53.368;14.658;2023-03-11T16:15:47;4.43;;;2.43;;
22571;SDS011;11452;53.368;14.658;2023-03-11T16:20:53;2.60;;;2.40;;
22571;SDS011;11452;53.368;14.658;2023-03-11T16:26:00;2.93;;;2.53;;
22571;SDS011;11452;53.368;14.658;2023-03-11T16:31:07;4.67;;;2.63;;
22571;SDS011;11452;53.368;14.658;2023-03-11T16:36:13;4.90;;;2.57;;
22571;SDS011;11452;53.368;14.658;2023-03-11T16:41:19;3.93;;;2.50;;
22571;SDS011;11452;53.368;14.658;2023-03-11T16:46:24;3.70;;;2.30;;
22571;SDS011;11452;53.368;14.658;2023-03-11T16:51:30;4.47;;;2.57;;
22571;SDS011;11452;53.368;14.658;2023-03-11T16:56:36;6.53;;;3.40;;
22571;SDS011;11452;53.368;14.658;2023-03-11T17:01:44;6.33;;;3.43;;
22571;SDS011;11452;53.368;14.658;2023-03-11T17:06:50;4.90;;;3.73;;
22571;SDS011;11452;53.368;14.658;2023-03-11T17:11:56;4.73;;;3.30;;
22571;SDS011;11452;53.368;14.658;2023-03-11T17:17:01;5.10;;;3.30;;
22571;SDS011;11452;53.368;14.658;2023-03-11T17:22:07;2.90;;;2.57;;
22571;SDS011;11452;53.368;14.658;2023-03-11T17:27:12;2.70;;;1.97;;
22571;SDS011;11452;53.368;14.658;2023-03-11T17:32:18;3.90;;;2.30;;
22571;SDS011;11452;53.368;14.658;2023-03-11T17:37:24;2.73;;;2.47;;
22571;SDS011;11452;53.368;14.658;2023-03-11T17:42:30;4.13;;;2.57;;
22571;SDS011;11452;53.368;14.658;2023-03-11T17:47:36;3.30;;;2.60;;
22571;SDS011;11452;53.368;14.658;2023-03-11T17:52:42;5.00;;;2.93;;
22571;SDS011;11452;53.368;14.658;2023-03-11T17:57:49;3.77;;;3.03;;
22571;SDS011;11452;53.368;14.658;2023-03-11T18:02:56;3.67;;;2.50;;
22571;SDS011;11452;53.368;14.658;2023-03-11T18:08:01;4.70;;;3.33;;
22571;SDS011;11452;53.368;14.658;2023-03-11T18:13:07;5.53;;;3.43;;
22571;SDS011;11452;53.368;14.658;2023-03-11T18:18:12;6.10;;;3.90;;
22571;SDS011;11452;53.368;14.658;2023-03-11T18:23:18;3.80;;;3.47;;
22571;SDS011;11452;53.368;14.658;2023-03-11T18:28:24;3.20;;;2.90;;
22571;SDS011;11452;53.368;14.658;2023-03-11T18:33:29;4.40;;;3.13;;
22571;SDS011;11452;53.368;14.658;2023-03-11T18:38:34;3.27;;;2.87;;
22571;SDS011;11452;53.368;14.658;2023-03-11T18:43:40;3.97;;;2.77;;
22571;SDS011;11452;53.368;14.658;2023-03-11T18:48:46;3.07;;;2.20;;
22571;SDS011;11452;53.368;14.658;2023-03-11T18:53:51;4.00;;;2.97;;
22571;SDS011;11452;53.368;14.658;2023-03-11T18:58:57;4.73;;;2.77;;
22571;SDS011;11452;53.368;14.658;2023-03-11T19:04:03;5.10;;;2.70;;
22571;SDS011;11452;53.368;14.658;2023-03-11T19:09:09;3.53;;;2.57;;
22571;SDS011;11452;53.368;14.658;2023-03-11T19:14:15;5.40;;;2.93;;
22571;SDS011;11452;53.368;14.658;2023-03-11T19:19:21;7.17;;;3.07;;
22571;SDS011;11452;53.368;14.658;2023-03-11T19:24:26;3.97;;;2.70;;
22571;SDS011;11452;53.368;14.658;2023-03-11T19:29:32;2.90;;;2.43;;
22571;SDS011;11452;53.368;14.658;2023-03-11T19:34:37;4.10;;;2.60;;
22571;SDS011;11452;53.368;14.658;2023-03-11T19:39:43;5.33;;;2.73;;
22571;SDS011;11452;53.368;14.658;2023-03-11T19:44:48;3.53;;;2.43;;
22571;SDS011;11452;53.368;14.658;2023-03-11T19:49:54;4.00;;;2.60;;
22571;SDS011;11452;53.368;14.658;2023-03-11T19:55:00;3.70;;;2.60;;
22571;SDS011;11452;53.368;14.658;2023-03-11T20:00:06;3.80;;;2.80;;
22571;SDS011;11452;53.368;14.658;2023-03-11T20:05:13;3.77;;;3.00;;
22571;SDS011;11452;53.368;14.658;2023-03-11T20:10:19;4.00;;;2.20;;
22571;SDS011;11452;53.368;14.658;2023-03-11T20:15:24;2.50;;;2.00;;
22571;SDS011;11452;53.368;14.658;2023-03-11T20:20:31;1.80;;;1.40;;
22571;SDS011;11452;53.368;14.658;2023-03-11T20:25:38;3.93;;;2.13;;
22571;SDS011;11452;53.368;14.658;2023-03-11T20:30:45;3.70;;;2.13;;
22571;SDS011;11452;53.368;14.658;2023-03-11T20:35:56;3.17;;;1.80;;
22571;SDS011;11452;53.368;14.658;2023-03-11T20:40:59;3.03;;;1.93;;
22571;SDS011;11452;53.368;14.658;2023-03-11T20:46:08;5.70;;;1.87;;
22571;SDS011;11452;53.368;14.658;2023-03-11T20:51:15;4.33;;;2.63;;
22571;SDS011;11452;53.368;14.658;2023-03-11T20:56:23;1.63;;;1.17;;
22571;SDS011;11452;53.368;14.658;2023-03-11T21:01:30;1.87;;;1.40;;
22571;SDS011;11452;53.368;14.658;2023-03-11T21:06:38;3.27;;;1.37;;
22571;SDS011;11452;53.368;14.658;2023-03-11T21:11:44;2.37;;;1.50;;
22571;SDS011;11452;53.368;14.658;2023-03-11T21:16:50;2.37;;;1.50;;
22571;SDS011;11452;53.368;14.658;2023-03-11T21:21:56;1.67;;;1.37;;
22571;SDS011;11452;53.368;14.658;2023-03-11T21:27:02;1.40;;;1.30;;
22571;SDS011;11452;53.368;14.658;2023-03-11T21:32:09;2.07;;;1.10;;
22571;SDS011;11452;53.368;14.658;2023-03-11T21:37:15;3.03;;;1.50;;
22571;SDS011;11452;53.368;14.658;2023-03-11T21:42:21;2.10;;;1.43;;
22571;SDS011;11452;53.368;14.658;2023-03-11T21:47:27;3.13;;;1.60;;
22571;SDS011;11452;53.368;14.658;2023-03-11T21:52:36;2.60;;;1.17;;
22571;SDS011;11452;53.368;14.658;2023-03-11T21:57:42;1.17;;;1.10;;
22571;SDS011;11452;53.368;14.658;2023-03-11T22:02:49;3.40;;;1.30;;
22571;SDS011;11452;53.368;14.658;2023-03-11T22:07:55;3.00;;;1.33;;
22571;SDS011;11452;53.368;14.658;2023-03-11T22:13:00;3.37;;;1.90;;
22571;SDS011;11452;53.368;14.658;2023-03-11T22:18:07;2.10;;;1.43;;
22571;SDS011;11452;53.368;14.658;2023-03-11T22:23:14;4.73;;;1.63;;
22571;SDS011;11452;53.368;14.658;2023-03-11T22:28:19;2.73;;;1.60;;
22571;SDS011;11452;53.368;14.658;2023-03-11T22:33:25;3.03;;;1.53;;
22571;SDS011;11452;53.368;14.658;2023-03-11T22:38:30;2.00;;;1.60;;
22571;SDS011;11452;53.368;14.658;2023-03-11T22:43:37;4.33;;;1.70;;
22571;SDS011;11452;53.368;14.658;2023-03-11T22:48:42;1.87;;;1.30;;
22571;SDS011;11452;53.368;14.658;2023-03-11T22:53:48;2.13;;;1.37;;
22571;SDS011;11452;53.368;14.658;2023-03-11T22:58:54;2.03;;;1.67;;
22571;SDS011;11452;53.368;14.658;2023-03-11T23:04:00;2.13;;;1.73;;
22571;SDS011;11452;53.368;14.658;2023-03-11T23:09:05;2.83;;;2.07;;
22571;SDS011;11452;53.368;14.658;2023-03-11T23:14:11;3.97;;;1.60;;
22571;SDS011;11452;53.368;14.658;2023-03-11T23:19:16;3.03;;;2.27;;
22571;SDS011;11452;53.368;14.658;2023-03-11T23:24:22;4.13;;;1.70;;
22571;SDS011;11452;53.368;14.658;2023-03-11T23:29:28;2.00;;;1.50;;
22571;SDS011;11452;53.368;14.658;2023-03-11T23:34:34;3.00;;;1.70;;
22571;SDS011;11452;53.368;14.658;2023-03-11T23:39:40;3.83;;;1.60;;
22571;SDS011;11452;53.368;14.658;2023-03-11T23:44:46;3.13;;;1.60;;
22571;SDS011;11452;53.368;14.658;2023-03-11T23:49:52;4.10;;;2.37;;
22571;SDS011;11452;53.368;14.658;2023-03-11T23:54:57;1.67;;;1.33;;
